createdAt,value
2024-05-09T04:03:36.989Z,4.80
2024-05-09T04:07:39.143Z,4.96
2024-05-09T04:11:43.924Z,5.05
2024-05-09T04:15:49.776Z,5.15
2024-05-09T04:19:57.124Z,5.27
2024-05-09T04:24:01.837Z,5.38
2024-05-09T04:28:06.894Z,5.50
2024-05-09T04:32:11.624Z,5.56
2024-05-09T04:36:18.980Z,5.63
2024-05-09T04:40:30.822Z,5.73
2024-05-09T04:44:38.427Z,5.87
2024-05-09T04:48:43.383Z,5.97
2024-05-09T04:52:50.851Z,6.20
2024-05-09T04:56:55.527Z,6.34
2024-05-09T05:00:57.604Z,6.47
2024-05-09T05:05:02.951Z,6.60
2024-05-09T05:09:10.413Z,6.73
2024-05-09T05:13:24.912Z,6.78
2024-05-09T05:17:30.086Z,6.91
2024-05-09T05:21:34.871Z,7.06
2024-05-09T05:25:42.284Z,7.30
2024-05-09T05:29:47.016Z,7.37
2024-05-09T05:33:52.013Z,7.58
2024-05-09T05:37:54.138Z,7.85
2024-05-09T05:42:01.544Z,8.04
2024-05-09T05:46:06.266Z,8.18
2024-05-09T05:50:20.751Z,8.40
2024-05-09T05:54:32.187Z,8.72
2024-05-09T05:58:39.439Z,8.91
2024-05-09T06:02:44.334Z,9.13
2024-05-09T06:06:49.157Z,9.27
2024-05-09T06:10:53.947Z,9.49
2024-05-09T06:15:01.355Z,9.78
2024-05-09T06:19:06.162Z,9.98
2024-05-09T06:23:11.797Z,10.25
2024-05-09T06:27:16.797Z,10.38
2024-05-09T06:31:24.107Z,10.66
2024-05-09T06:35:28.859Z,10.92
2024-05-09T06:39:33.620Z,11.07
2024-05-09T06:43:38.322Z,11.21
2024-05-09T06:47:46.213Z,11.39
2024-05-09T06:51:50.951Z,11.60
2024-05-09T06:55:55.643Z,11.78
2024-05-09T07:00:01.000Z,11.92
2024-05-09T07:04:08.694Z,12.20
2024-05-09T07:08:14.844Z,12.38
2024-05-09T07:12:19.693Z,12.49
2024-05-09T07:16:24.456Z,12.69
2024-05-09T07:20:34.547Z,12.93
2024-05-09T07:24:40.157Z,13.12
2024-05-09T07:28:45.273Z,13.31
2024-05-09T07:32:50.304Z,13.48
2024-05-09T07:36:57.777Z,13.69
2024-05-09T07:41:02.480Z,13.99
2024-05-09T07:45:29.534Z,14.27
2024-05-09T07:53:49.915Z,14.71
2024-05-09T07:57:57.184Z,14.94
2024-05-09T08:02:02.173Z,15.19
2024-05-09T08:06:07.467Z,15.36
2024-05-09T08:10:18.802Z,15.73
2024-05-09T08:14:26.609Z,15.95
2024-05-09T08:18:31.587Z,16.11
2024-05-09T08:22:36.557Z,16.32
2024-05-09T08:26:43.876Z,16.55
2024-05-09T08:30:48.814Z,16.70
2024-05-09T08:34:53.837Z,16.76
2024-05-09T08:38:58.599Z,16.91
2024-05-09T08:43:12.087Z,16.99
2024-05-09T08:47:17.877Z,17.45
2024-05-09T08:51:22.813Z,17.46
2024-05-09T08:55:28.024Z,17.50
2024-05-09T08:59:38.396Z,17.62
2024-05-09T09:03:44.758Z,17.57
2024-05-09T09:07:51.556Z,17.52
2024-05-09T09:11:56.326Z,17.71
2024-05-09T09:16:04.020Z,17.88
2024-05-09T09:20:14.406Z,18.02
2024-05-09T09:24:23.634Z,18.33
2024-05-09T09:28:28.366Z,18.11
2024-05-09T09:32:35.758Z,18.02
2024-05-09T09:36:42.391Z,17.91
2024-05-09T09:40:50.411Z,18.03
2024-05-09T09:45:03.900Z,18.23
2024-05-09T09:49:12.957Z,18.33
2024-05-09T09:53:19.212Z,18.28
2024-05-09T09:57:26.664Z,18.43
2024-05-09T10:01:31.381Z,18.05
2024-05-09T10:05:41.309Z,18.49
2024-05-09T10:09:48.294Z,18.55
2024-05-09T10:13:54.962Z,18.79
2024-05-09T10:18:07.518Z,19.09
2024-05-09T10:22:15.086Z,19.04
2024-05-09T10:26:19.819Z,18.82
2024-05-09T10:30:33.823Z,19.19
2024-05-09T10:34:40.859Z,19.33
2024-05-09T10:38:48.229Z,19.61
2024-05-09T10:42:53.012Z,19.50
2024-05-09T10:46:57.917Z,19.34
2024-05-09T10:51:03.868Z,19.56
2024-05-09T10:55:11.307Z,19.74
2024-05-09T10:59:15.969Z,19.91
2024-05-09T11:03:20.919Z,19.61
2024-05-09T11:07:25.816Z,19.56
2024-05-09T11:11:33.355Z,19.63
2024-05-09T11:15:42.043Z,19.61
2024-05-09T11:19:47.151Z,19.76
2024-05-09T11:23:51.963Z,19.68
2024-05-09T11:28:01.470Z,19.51
2024-05-09T11:32:06.667Z,19.49
2024-05-09T11:36:12.096Z,19.76
2024-05-09T11:40:24.838Z,20.26
2024-05-09T11:44:36.077Z,20.53
2024-05-09T11:48:42.423Z,20.56
2024-05-09T11:52:47.200Z,20.17
2024-05-09T11:56:49.337Z,20.06
2024-05-09T12:00:57.275Z,20.19
2024-05-09T12:05:02.230Z,20.48
2024-05-09T12:09:07.181Z,21.02
2024-05-09T12:13:16.115Z,20.99
2024-05-09T12:17:27.710Z,21.09
2024-05-09T12:21:33.805Z,20.79
2024-05-09T12:25:39.598Z,20.60
2024-05-09T12:29:44.703Z,20.93
2024-05-09T12:33:53.228Z,20.60
2024-05-09T12:37:55.424Z,20.51
2024-05-09T12:42:00.183Z,20.56
2024-05-09T12:46:05.277Z,20.63
2024-05-09T12:50:21.862Z,20.38
2024-05-09T12:54:31.844Z,20.98
2024-05-09T12:58:36.558Z,21.40
2024-05-09T13:02:41.653Z,21.41
2024-05-09T13:06:49.603Z,20.61
2024-05-09T13:10:54.563Z,20.42
2024-05-09T13:14:59.300Z,21.30
2024-05-09T13:19:03.998Z,21.46
2024-05-09T13:23:11.369Z,21.43
2024-05-09T13:27:13.601Z,20.91
2024-05-09T13:31:19.826Z,20.85
2024-05-09T13:35:24.564Z,20.52
2024-05-09T13:39:29.288Z,20.60
2024-05-09T13:43:34.128Z,20.81
2024-05-09T13:47:39.189Z,21.57
2024-05-09T13:51:44.123Z,22.33
2024-05-09T13:55:51.584Z,22.22
2024-05-09T13:59:56.254Z,22.71
2024-05-09T14:04:01.161Z,23.29
2024-05-09T14:08:06.139Z,23.02
2024-05-09T14:12:13.578Z,23.53
2024-05-09T14:16:18.580Z,23.74
2024-05-09T14:20:30.459Z,23.46
2024-05-09T14:24:37.012Z,23.34
2024-05-09T14:28:44.347Z,23.49
2024-05-09T14:32:49.169Z,23.89
2024-05-09T14:36:54.012Z,24.01
2024-05-09T14:40:58.919Z,25.46
2024-05-09T14:45:08.647Z,24.34
2024-05-09T14:49:13.582Z,24.44
2024-05-09T14:53:18.478Z,24.28
2024-05-09T14:57:23.357Z,24.48
2024-05-09T15:01:31.062Z,24.39
2024-05-09T15:05:35.972Z,24.93
2024-05-09T15:09:40.806Z,24.98
2024-05-09T15:13:45.476Z,24.82
2024-05-09T15:17:53.274Z,24.30
2024-05-09T15:21:58.160Z,24.16
2024-05-09T15:26:03.970Z,24.57
2024-05-09T15:30:10.841Z,24.73
2024-05-09T15:34:19.983Z,25.28
2024-05-09T15:38:26.381Z,25.33
2024-05-09T15:42:31.087Z,25.63
2024-05-09T15:46:36.110Z,25.24
2024-05-09T15:50:43.721Z,25.28
2024-05-09T15:54:48.766Z,25.45
2024-05-09T15:58:53.464Z,24.81
2024-05-09T16:02:58.257Z,25.04
2024-05-09T16:07:06.194Z,25.17
2024-05-09T16:11:11.040Z,25.85
2024-05-09T16:15:15.833Z,26.36
2024-05-09T16:19:20.576Z,25.17
2024-05-09T16:23:27.990Z,25.25
2024-05-09T16:27:32.732Z,25.70
2024-05-09T16:31:37.535Z,25.15
2024-05-09T16:35:42.224Z,24.81
2024-05-09T16:39:49.572Z,25.04
2024-05-09T16:43:54.446Z,25.14
2024-05-09T16:47:59.783Z,25.21
2024-05-09T16:52:04.878Z,25.45
2024-05-09T16:56:12.581Z,25.06
2024-05-09T17:00:25.619Z,24.81
2024-05-09T17:04:36.633Z,24.88
2024-05-09T17:08:43.694Z,25.41
2024-05-09T17:12:51.213Z,25.16
2024-05-09T17:16:55.938Z,25.26
2024-05-09T17:21:00.770Z,24.98
2024-05-09T17:25:05.591Z,24.90
2024-05-09T17:29:13.075Z,24.92
2024-05-09T17:33:17.982Z,24.68
2024-05-09T17:37:23.018Z,24.66
2024-05-09T17:41:27.786Z,24.85
2024-05-09T17:45:36.734Z,24.64
2024-05-09T17:49:41.508Z,24.33
2024-05-09T17:53:48.440Z,23.71
2024-05-09T17:57:53.447Z,23.10
2024-05-09T18:02:01.074Z,22.02
2024-05-09T18:06:06.017Z,21.11
2024-05-09T18:10:19.505Z,20.41
2024-05-09T18:14:30.384Z,20.14
2024-05-09T18:18:37.905Z,19.93
2024-05-09T18:22:42.680Z,20.11
2024-05-09T18:26:47.410Z,19.82
2024-05-09T18:30:52.196Z,19.47
2024-05-09T18:34:59.584Z,19.20
2024-05-09T18:39:06.196Z,19.01
2024-05-09T18:43:10.919Z,18.95
2024-05-09T18:47:19.320Z,18.65
2024-05-09T18:51:27.303Z,17.99
2024-05-09T18:55:29.509Z,17.54
2024-05-09T18:59:34.287Z,17.43
2024-05-09T19:03:39.260Z,17.08
2024-05-09T19:07:46.711Z,16.87
2024-05-09T19:11:51.483Z,16.50
2024-05-09T19:15:56.346Z,15.94
2024-05-09T19:20:01.207Z,15.53
2024-05-09T19:24:08.914Z,15.32
2024-05-09T19:28:13.725Z,15.18
2024-05-09T19:32:18.584Z,15.09
2024-05-09T19:36:23.479Z,14.86
2024-05-09T19:40:32.994Z,14.73
2024-05-09T19:44:39.187Z,14.56
2024-05-09T19:48:44.216Z,14.46
2024-05-09T19:52:49.014Z,14.36
2024-05-09T19:56:58.804Z,14.14
2024-05-09T20:01:03.629Z,13.89
2024-05-09T20:05:08.703Z,13.74
2024-05-09T20:09:13.681Z,13.57
2024-05-09T20:13:21.275Z,13.40
2024-05-09T20:17:26.161Z,13.34
2024-05-09T20:21:30.814Z,13.01
2024-05-09T20:25:35.717Z,12.69
2024-05-09T20:29:43.079Z,12.51
2024-05-09T20:33:47.814Z,12.41
2024-05-09T20:37:52.530Z,12.44
2024-05-09T20:41:57.897Z,12.55
2024-05-09T20:46:05.919Z,12.75
2024-05-09T20:50:20.338Z,12.72
2024-05-09T20:54:33.106Z,12.48
2024-05-09T20:58:37.804Z,12.30
